sensor_id;sensor_type;location;lat;lon;timestamp;P1;durP1;ratioP1;P2;durP2;ratioP2
51184;SDS011;37248;59.350;18.050;2023-05-07T00:02:04;5.50;;;1.90;;
51184;SDS011;37248;59.350;18.050;2023-05-07T00:04:29;4.07;;;1.80;;
51184;SDS011;37248;59.350;18.050;2023-05-07T00:07:01;3.65;;;1.63;;
51184;SDS011;37248;59.350;18.050;2023-05-07T00:09:26;2.10;;;1.60;;
51184;SDS011;37248;59.350;18.050;2023-05-07T00:11:51;3.55;;;1.48;;
51184;SDS011;37248;59.350;18.050;2023-05-07T00:14:16;5.67;;;2.00;;
51184;SDS011;37248;59.350;18.050;2023-05-07T00:16:41;2.80;;;1.58;;
51184;SDS011;37248;59.350;18.050;2023-05-07T00:19:07;3.67;;;1.50;;
51184;SDS011;37248;59.350;18.050;2023-05-07T00:21:32;4.67;;;1.63;;
51184;SDS011;37248;59.350;18.050;2023-05-07T00:23:57;4.73;;;1.47;;
51184;SDS011;37248;59.350;18.050;2023-05-07T00:26:23;2.93;;;1.43;;
51184;SDS011;37248;59.350;18.050;2023-05-07T00:28:48;3.57;;;1.50;;
51184;SDS011;37248;59.350;18.050;2023-05-07T00:31:13;3.40;;;1.40;;
51184;SDS011;37248;59.350;18.050;2023-05-07T00:33:38;2.70;;;1.40;;
51184;SDS011;37248;59.350;18.050;2023-05-07T00:36:04;3.47;;;1.80;;
51184;SDS011;37248;59.350;18.050;2023-05-07T00:38:29;2.83;;;1.42;;
51184;SDS011;37248;59.350;18.050;2023-05-07T00:40:55;1.88;;;1.30;;
51184;SDS011;37248;59.350;18.050;2023-05-07T00:43:20;1.63;;;1.23;;
51184;SDS011;37248;59.350;18.050;2023-05-07T00:45:45;9.73;;;1.80;;
51184;SDS011;37248;59.350;18.050;2023-05-07T00:48:11;2.23;;;1.17;;
51184;SDS011;37248;59.350;18.050;2023-05-07T00:50:36;2.93;;;1.20;;
51184;SDS011;37248;59.350;18.050;2023-05-07T00:53:01;2.80;;;1.40;;
51184;SDS011;37248;59.350;18.050;2023-05-07T00:55:27;2.30;;;1.10;;
51184;SDS011;37248;59.350;18.050;2023-05-07T00:57:53;2.20;;;1.10;;
51184;SDS011;37248;59.350;18.050;2023-05-07T01:00:18;1.93;;;1.10;;
51184;SDS011;37248;59.350;18.050;2023-05-07T01:02:44;1.77;;;1.37;;
51184;SDS011;37248;59.350;18.050;2023-05-07T01:05:12;2.08;;;1.15;;
51184;SDS011;37248;59.350;18.050;2023-05-07T01:07:39;2.60;;;1.30;;
51184;SDS011;37248;59.350;18.050;2023-05-07T01:10:05;1.60;;;1.10;;
51184;SDS011;37248;59.350;18.050;2023-05-07T01:12:31;1.55;;;1.20;;
51184;SDS011;37248;59.350;18.050;2023-05-07T01:14:57;2.50;;;1.30;;
51184;SDS011;37248;59.350;18.050;2023-05-07T01:17:23;2.35;;;1.20;;
51184;SDS011;37248;59.350;18.050;2023-05-07T01:19:48;2.07;;;1.17;;
51184;SDS011;37248;59.350;18.050;2023-05-07T01:22:14;2.57;;;1.30;;
51184;SDS011;37248;59.350;18.050;2023-05-07T01:24:41;3.30;;;1.00;;
51184;SDS011;37248;59.350;18.050;2023-05-07T01:27:06;2.73;;;1.00;;
51184;SDS011;37248;59.350;18.050;2023-05-07T01:29:31;2.20;;;1.00;;
51184;SDS011;37248;59.350;18.050;2023-05-07T01:31:57;3.63;;;1.17;;
51184;SDS011;37248;59.350;18.050;2023-05-07T01:34:24;2.15;;;0.95;;
51184;SDS011;37248;59.350;18.050;2023-05-07T01:36:50;2.05;;;1.05;;
51184;SDS011;37248;59.350;18.050;2023-05-07T01:39:17;1.45;;;1.02;;
51184;SDS011;37248;59.350;18.050;2023-05-07T01:41:42;2.07;;;1.27;;
51184;SDS011;37248;59.350;18.050;2023-05-07T01:44:08;1.92;;;1.40;;
51184;SDS011;37248;59.350;18.050;2023-05-07T01:46:35;1.80;;;1.10;;
51184;SDS011;37248;59.350;18.050;2023-05-07T01:49:00;3.55;;;1.10;;
51184;SDS011;37248;59.350;18.050;2023-05-07T01:51:26;1.20;;;0.90;;
51184;SDS011;37248;59.350;18.050;2023-05-07T01:53:52;2.50;;;0.90;;
51184;SDS011;37248;59.350;18.050;2023-05-07T01:56:18;2.83;;;1.35;;
51184;SDS011;37248;59.350;18.050;2023-05-07T01:58:44;2.55;;;1.02;;
51184;SDS011;37248;59.350;18.050;2023-05-07T02:01:10;1.58;;;0.90;;
51184;SDS011;37248;59.350;18.050;2023-05-07T02:03:36;1.80;;;0.90;;
51184;SDS011;37248;59.350;18.050;2023-05-07T02:06:01;1.80;;;0.93;;
51184;SDS011;37248;59.350;18.050;2023-05-07T02:08:26;2.00;;;1.10;;
51184;SDS011;37248;59.350;18.050;2023-05-07T02:10:52;3.47;;;0.90;;
51184;SDS011;37248;59.350;18.050;2023-05-07T02:13:18;1.77;;;1.00;;
51184;SDS011;37248;59.350;18.050;2023-05-07T02:15:44;1.92;;;1.10;;
51184;SDS011;37248;59.350;18.050;2023-05-07T02:18:14;1.48;;;0.85;;
51184;SDS011;37248;59.350;18.050;2023-05-07T02:20:39;2.40;;;0.90;;
51184;SDS011;37248;59.350;18.050;2023-05-07T02:23:04;1.97;;;1.07;;
51184;SDS011;37248;59.350;18.050;2023-05-07T02:25:29;2.63;;;1.00;;
51184;SDS011;37248;59.350;18.050;2023-05-07T02:27:55;1.43;;;1.00;;
51184;SDS011;37248;59.350;18.050;2023-05-07T02:30:20;2.47;;;0.97;;
51184;SDS011;37248;59.350;18.050;2023-05-07T02:32:46;1.75;;;0.75;;
51184;SDS011;37248;59.350;18.050;2023-05-07T02:35:11;3.45;;;1.40;;
51184;SDS011;37248;59.350;18.050;2023-05-07T02:37:36;2.33;;;0.90;;
51184;SDS011;37248;59.350;18.050;2023-05-07T02:40:02;1.97;;;0.93;;
51184;SDS011;37248;59.350;18.050;2023-05-07T02:42:28;2.53;;;0.73;;
51184;SDS011;37248;59.350;18.050;2023-05-07T02:44:53;2.17;;;1.00;;
51184;SDS011;37248;59.350;18.050;2023-05-07T02:47:19;2.13;;;0.93;;
51184;SDS011;37248;59.350;18.050;2023-05-07T02:49:44;2.20;;;0.90;;
51184;SDS011;37248;59.350;18.050;2023-05-07T02:52:09;2.50;;;0.95;;
51184;SDS011;37248;59.350;18.050;2023-05-07T02:54:34;1.97;;;0.87;;
51184;SDS011;37248;59.350;18.050;2023-05-07T02:57:00;2.10;;;0.60;;
51184;SDS011;37248;59.350;18.050;2023-05-07T02:59:26;2.80;;;0.90;;
51184;SDS011;37248;59.350;18.050;2023-05-07T03:01:51;4.40;;;1.00;;
51184;SDS011;37248;59.350;18.050;2023-05-07T03:04:16;3.90;;;0.90;;
51184;SDS011;37248;59.350;18.050;2023-05-07T03:06:42;2.67;;;1.07;;
51184;SDS011;37248;59.350;18.050;2023-05-07T03:09:07;1.83;;;0.87;;
51184;SDS011;37248;59.350;18.050;2023-05-07T03:11:32;1.53;;;0.90;;
51184;SDS011;37248;59.350;18.050;2023-05-07T03:13:57;2.97;;;0.90;;
51184;SDS011;37248;59.350;18.050;2023-05-07T03:16:23;1.47;;;0.73;;
51184;SDS011;37248;59.350;18.050;2023-05-07T03:18:48;1.60;;;0.70;;
51184;SDS011;37248;59.350;18.050;2023-05-07T03:21:13;2.27;;;0.80;;
51184;SDS011;37248;59.350;18.050;2023-05-07T03:23:38;2.93;;;0.73;;
51184;SDS011;37248;59.350;18.050;2023-05-07T03:26:04;3.13;;;0.70;;
51184;SDS011;37248;59.350;18.050;2023-05-07T03:28:29;3.92;;;0.80;;
51184;SDS011;37248;59.350;18.050;2023-05-07T03:30:54;10.93;;;1.10;;
51184;SDS011;37248;59.350;18.050;2023-05-07T03:33:20;2.93;;;1.00;;
51184;SDS011;37248;59.350;18.050;2023-05-07T03:35:45;6.70;;;1.10;;
51184;SDS011;37248;59.350;18.050;2023-05-07T03:38:10;9.07;;;1.33;;
51184;SDS011;37248;59.350;18.050;2023-05-07T03:40:36;8.13;;;1.33;;
51184;SDS011;37248;59.350;18.050;2023-05-07T03:43:01;14.77;;;1.60;;
51184;SDS011;37248;59.350;18.050;2023-05-07T03:45:26;5.00;;;1.00;;
51184;SDS011;37248;59.350;18.050;2023-05-07T03:47:52;10.03;;;1.03;;
51184;SDS011;37248;59.350;18.050;2023-05-07T03:50:17;7.07;;;0.90;;
51184;SDS011;37248;59.350;18.050;2023-05-07T03:52:45;6.22;;;1.35;;
51184;SDS011;37248;59.350;18.050;2023-05-07T03:55:10;9.07;;;1.30;;
51184;SDS011;37248;59.350;18.050;2023-05-07T03:57:36;6.93;;;1.17;;
51184;SDS011;37248;59.350;18.050;2023-05-07T04:00:01;6.10;;;1.20;;
51184;SDS011;37248;59.350;18.050;2023-05-07T04:02:27;8.90;;;1.30;;
51184;SDS011;37248;59.350;18.050;2023-05-07T04:04:52;6.93;;;1.20;;
51184;SDS011;37248;59.350;18.050;2023-05-07T04:07:17;3.10;;;1.10;;
51184;SDS011;37248;59.350;18.050;2023-05-07T04:09:43;8.77;;;1.13;;
51184;SDS011;37248;59.350;18.050;2023-05-07T04:12:08;5.00;;;1.30;;
51184;SDS011;37248;59.350;18.050;2023-05-07T04:14:33;6.93;;;1.17;;
51184;SDS011;37248;59.350;18.050;2023-05-07T04:16:59;3.80;;;0.93;;
51184;SDS011;37248;59.350;18.050;2023-05-07T04:19:24;8.00;;;0.83;;
51184;SDS011;37248;59.350;18.050;2023-05-07T04:21:49;6.03;;;1.10;;
51184;SDS011;37248;59.350;18.050;2023-05-07T04:24:15;4.93;;;1.00;;
51184;SDS011;37248;59.350;18.050;2023-05-07T04:26:40;3.53;;;0.70;;
51184;SDS011;37248;59.350;18.050;2023-05-07T04:29:06;5.07;;;1.07;;
51184;SDS011;37248;59.350;18.050;2023-05-07T04:31:33;3.97;;;0.88;;
51184;SDS011;37248;59.350;18.050;2023-05-07T04:33:58;3.28;;;1.02;;
51184;SDS011;37248;59.350;18.050;2023-05-07T04:36:24;4.83;;;0.90;;
51184;SDS011;37248;59.350;18.050;2023-05-07T04:38:52;1.30;;;0.70;;
51184;SDS011;37248;59.350;18.050;2023-05-07T04:41:18;4.63;;;0.85;;
51184;SDS011;37248;59.350;18.050;2023-05-07T04:43:44;4.95;;;0.93;;
51184;SDS011;37248;59.350;18.050;2023-05-07T04:46:12;6.93;;;1.00;;
51184;SDS011;37248;59.350;18.050;2023-05-07T04:48:37;4.55;;;0.80;;
51184;SDS011;37248;59.350;18.050;2023-05-07T04:51:03;3.80;;;0.90;;
51184;SDS011;37248;59.350;18.050;2023-05-07T04:53:28;3.13;;;0.80;;
51184;SDS011;37248;59.350;18.050;2023-05-07T04:55:56;7.13;;;0.90;;
51184;SDS011;37248;59.350;18.050;2023-05-07T04:58:22;3.30;;;0.68;;
51184;SDS011;37248;59.350;18.050;2023-05-07T05:00:47;6.38;;;0.90;;
51184;SDS011;37248;59.350;18.050;2023-05-07T05:03:12;5.27;;;1.00;;
51184;SDS011;37248;59.350;18.050;2023-05-07T05:05:38;9.85;;;1.00;;
51184;SDS011;37248;59.350;18.050;2023-05-07T05:08:03;3.57;;;0.97;;
51184;SDS011;37248;59.350;18.050;2023-05-07T05:10:28;7.45;;;1.00;;
51184;SDS011;37248;59.350;18.050;2023-05-07T05:12:54;4.13;;;0.80;;
51184;SDS011;37248;59.350;18.050;2023-05-07T05:15:19;7.20;;;1.23;;
51184;SDS011;37248;59.350;18.050;2023-05-07T05:17:44;2.80;;;0.70;;
51184;SDS011;37248;59.350;18.050;2023-05-07T05:20:10;9.63;;;1.23;;
51184;SDS011;37248;59.350;18.050;2023-05-07T05:22:36;4.13;;;0.70;;
51184;SDS011;37248;59.350;18.050;2023-05-07T05:25:02;2.53;;;0.83;;
51184;SDS011;37248;59.350;18.050;2023-05-07T05:27:28;8.10;;;1.00;;
51184;SDS011;37248;59.350;18.050;2023-05-07T05:29:53;5.88;;;1.13;;
51184;SDS011;37248;59.350;18.050;2023-05-07T05:32:21;4.70;;;0.80;;
51184;SDS011;37248;59.350;18.050;2023-05-07T05:34:47;6.93;;;0.90;;
51184;SDS011;37248;59.350;18.050;2023-05-07T05:37:12;7.30;;;0.90;;
51184;SDS011;37248;59.350;18.050;2023-05-07T05:39:38;4.70;;;1.10;;
51184;SDS011;37248;59.350;18.050;2023-05-07T05:42:03;2.53;;;0.83;;
51184;SDS011;37248;59.350;18.050;2023-05-07T05:44:28;2.50;;;0.80;;
51184;SDS011;37248;59.350;18.050;2023-05-07T05:46:53;5.13;;;0.70;;
51184;SDS011;37248;59.350;18.050;2023-05-07T05:49:27;3.00;;;0.98;;
51184;SDS011;37248;59.350;18.050;2023-05-07T05:51:53;2.55;;;0.82;;
51184;SDS011;37248;59.350;18.050;2023-05-07T05:54:18;3.90;;;0.93;;
51184;SDS011;37248;59.350;18.050;2023-05-07T05:56:43;3.03;;;1.10;;
51184;SDS011;37248;59.350;18.050;2023-05-07T05:59:09;3.73;;;0.90;;
51184;SDS011;37248;59.350;18.050;2023-05-07T06:01:35;2.70;;;0.85;;
51184;SDS011;37248;59.350;18.050;2023-05-07T06:04:00;2.53;;;0.70;;
51184;SDS011;37248;59.350;18.050;2023-05-07T06:06:26;3.60;;;0.83;;
51184;SDS011;37248;59.350;18.050;2023-05-07T06:08:52;4.47;;;1.10;;
51184;SDS011;37248;59.350;18.050;2023-05-07T06:11:17;6.53;;;1.00;;
51184;SDS011;37248;59.350;18.050;2023-05-07T06:13:43;3.33;;;0.80;;
51184;SDS011;37248;59.350;18.050;2023-05-07T06:16:08;2.87;;;0.80;;
51184;SDS011;37248;59.350;18.050;2023-05-07T06:18:33;1.20;;;0.70;;
51184;SDS011;37248;59.350;18.050;2023-05-07T06:21:01;2.53;;;0.98;;
51184;SDS011;37248;59.350;18.050;2023-05-07T06:23:26;10.10;;;1.03;;
51184;SDS011;37248;59.350;18.050;2023-05-07T06:25:51;4.60;;;1.00;;
51184;SDS011;37248;59.350;18.050;2023-05-07T06:28:17;4.43;;;0.90;;
51184;SDS011;37248;59.350;18.050;2023-05-07T06:30:42;2.87;;;0.93;;
51184;SDS011;37248;59.350;18.050;2023-05-07T06:33:08;2.15;;;0.80;;
51184;SDS011;37248;59.350;18.050;2023-05-07T06:35:33;3.10;;;0.70;;
51184;SDS011;37248;59.350;18.050;2023-05-07T06:37:59;3.10;;;0.87;;
51184;SDS011;37248;59.350;18.050;2023-05-07T06:40:25;3.97;;;0.88;;
51184;SDS011;37248;59.350;18.050;2023-05-07T06:42:50;2.70;;;0.70;;
51184;SDS011;37248;59.350;18.050;2023-05-07T06:45:15;1.93;;;0.60;;
51184;SDS011;37248;59.350;18.050;2023-05-07T06:47:43;3.45;;;0.77;;
51184;SDS011;37248;59.350;18.050;2023-05-07T06:50:09;5.83;;;1.10;;
51184;SDS011;37248;59.350;18.050;2023-05-07T06:52:34;18.47;;;1.87;;
51184;SDS011;37248;59.350;18.050;2023-05-07T06:55:00;38.33;;;3.83;;
51184;SDS011;37248;59.350;18.050;2023-05-07T06:57:25;62.93;;;4.93;;
51184;SDS011;37248;59.350;18.050;2023-05-07T06:59:50;29.90;;;2.53;;
51184;SDS011;37248;59.350;18.050;2023-05-07T07:02:16;19.33;;;2.10;;
51184;SDS011;37248;59.350;18.050;2023-05-07T07:04:41;10.33;;;1.60;;
51184;SDS011;37248;59.350;18.050;2023-05-07T07:07:07;17.57;;;2.10;;
51184;SDS011;37248;59.350;18.050;2023-05-07T07:09:32;11.20;;;1.43;;
51184;SDS011;37248;59.350;18.050;2023-05-07T07:11:57;13.47;;;1.90;;
51184;SDS011;37248;59.350;18.050;2023-05-07T07:14:23;18.70;;;1.73;;
51184;SDS011;37248;59.350;18.050;2023-05-07T07:16:48;12.23;;;1.70;;
51184;SDS011;37248;59.350;18.050;2023-05-07T07:19:13;13.10;;;1.77;;
51184;SDS011;37248;59.350;18.050;2023-05-07T07:21:40;8.10;;;1.50;;
51184;SDS011;37248;59.350;18.050;2023-05-07T07:24:06;13.00;;;1.45;;
51184;SDS011;37248;59.350;18.050;2023-05-07T07:26:31;8.93;;;1.33;;
51184;SDS011;37248;59.350;18.050;2023-05-07T07:28:57;24.27;;;1.70;;
51184;SDS011;37248;59.350;18.050;2023-05-07T07:31:22;9.10;;;1.60;;
51184;SDS011;37248;59.350;18.050;2023-05-07T07:33:47;5.80;;;1.27;;
51184;SDS011;37248;59.350;18.050;2023-05-07T07:36:12;13.77;;;1.60;;
51184;SDS011;37248;59.350;18.050;2023-05-07T07:38:37;9.20;;;1.47;;
51184;SDS011;37248;59.350;18.050;2023-05-07T07:41:03;9.38;;;1.27;;
51184;SDS011;37248;59.350;18.050;2023-05-07T07:43:28;7.00;;;1.03;;
51184;SDS011;37248;59.350;18.050;2023-05-07T07:45:54;6.07;;;1.00;;
51184;SDS011;37248;59.350;18.050;2023-05-07T07:48:19;8.53;;;1.13;;
51184;SDS011;37248;59.350;18.050;2023-05-07T07:50:44;8.50;;;1.37;;
51184;SDS011;37248;59.350;18.050;2023-05-07T07:53:10;9.53;;;1.00;;
51184;SDS011;37248;59.350;18.050;2023-05-07T07:55:38;4.83;;;1.17;;
51184;SDS011;37248;59.350;18.050;2023-05-07T07:58:04;7.22;;;1.23;;
51184;SDS011;37248;59.350;18.050;2023-05-07T08:00:30;5.50;;;1.10;;
51184;SDS011;37248;59.350;18.050;2023-05-07T08:02:55;9.57;;;1.33;;
51184;SDS011;37248;59.350;18.050;2023-05-07T08:05:20;9.80;;;1.07;;
51184;SDS011;37248;59.350;18.050;2023-05-07T08:07:46;9.30;;;1.20;;
51184;SDS011;37248;59.350;18.050;2023-05-07T08:10:16;10.53;;;1.43;;
51184;SDS011;37248;59.350;18.050;2023-05-07T08:12:46;14.15;;;1.45;;
51184;SDS011;37248;59.350;18.050;2023-05-07T08:15:11;13.93;;;1.50;;
51184;SDS011;37248;59.350;18.050;2023-05-07T08:17:36;11.07;;;1.27;;
51184;SDS011;37248;59.350;18.050;2023-05-07T08:20:01;9.33;;;1.13;;
51184;SDS011;37248;59.350;18.050;2023-05-07T08:22:27;4.10;;;1.15;;
51184;SDS011;37248;59.350;18.050;2023-05-07T08:24:52;9.53;;;1.70;;
51184;SDS011;37248;59.350;18.050;2023-05-07T08:27:18;16.80;;;1.63;;
51184;SDS011;37248;59.350;18.050;2023-05-07T08:29:44;25.70;;;1.80;;
51184;SDS011;37248;59.350;18.050;2023-05-07T08:32:12;14.90;;;1.92;;
51184;SDS011;37248;59.350;18.050;2023-05-07T08:34:37;14.03;;;1.40;;
51184;SDS011;37248;59.350;18.050;2023-05-07T08:37:02;12.10;;;1.40;;
51184;SDS011;37248;59.350;18.050;2023-05-07T08:39:28;10.93;;;1.67;;
51184;SDS011;37248;59.350;18.050;2023-05-07T08:41:54;8.13;;;1.47;;
51184;SDS011;37248;59.350;18.050;2023-05-07T08:44:21;13.88;;;1.83;;
51184;SDS011;37248;59.350;18.050;2023-05-07T08:46:47;15.17;;;1.97;;
51184;SDS011;37248;59.350;18.050;2023-05-07T08:49:14;31.63;;;1.92;;
51184;SDS011;37248;59.350;18.050;2023-05-07T08:51:40;6.57;;;1.40;;
51184;SDS011;37248;59.350;18.050;2023-05-07T08:54:06;11.60;;;1.90;;
51184;SDS011;37248;59.350;18.050;2023-05-07T08:56:32;18.50;;;2.50;;
51184;SDS011;37248;59.350;18.050;2023-05-07T08:58:57;11.23;;;3.03;;
51184;SDS011;37248;59.350;18.050;2023-05-07T09:01:23;18.20;;;3.10;;
51184;SDS011;37248;59.350;18.050;2023-05-07T09:03:49;14.40;;;2.78;;
51184;SDS011;37248;59.350;18.050;2023-05-07T09:06:14;16.83;;;3.23;;
51184;SDS011;37248;59.350;18.050;2023-05-07T09:08:40;9.67;;;2.27;;
51184;SDS011;37248;59.350;18.050;2023-05-07T09:11:05;13.40;;;2.43;;
51184;SDS011;37248;59.350;18.050;2023-05-07T09:13:30;10.57;;;2.87;;
51184;SDS011;37248;59.350;18.050;2023-05-07T09:15:56;14.90;;;3.13;;
51184;SDS011;37248;59.350;18.050;2023-05-07T09:18:23;14.17;;;2.93;;
51184;SDS011;37248;59.350;18.050;2023-05-07T09:20:48;7.68;;;2.40;;
51184;SDS011;37248;59.350;18.050;2023-05-07T09:23:13;12.30;;;3.07;;
51184;SDS011;37248;59.350;18.050;2023-05-07T09:25:39;13.43;;;2.80;;
51184;SDS011;37248;59.350;18.050;2023-05-07T09:28:04;8.20;;;2.47;;
51184;SDS011;37248;59.350;18.050;2023-05-07T09:30:31;11.90;;;2.80;;
51184;SDS011;37248;59.350;18.050;2023-05-07T09:33:00;6.83;;;2.17;;
51184;SDS011;37248;59.350;18.050;2023-05-07T09:35:26;9.23;;;2.40;;
51184;SDS011;37248;59.350;18.050;2023-05-07T09:37:57;15.52;;;2.70;;
51184;SDS011;37248;59.350;18.050;2023-05-07T09:40:26;8.67;;;2.50;;
51184;SDS011;37248;59.350;18.050;2023-05-07T09:42:52;9.73;;;3.00;;
51184;SDS011;37248;59.350;18.050;2023-05-07T09:45:27;8.73;;;2.63;;
51184;SDS011;37248;59.350;18.050;2023-05-07T09:47:56;6.78;;;2.30;;
51184;SDS011;37248;59.350;18.050;2023-05-07T09:50:46;8.77;;;2.20;;
51184;SDS011;37248;59.350;18.050;2023-05-07T09:53:07;8.23;;;2.00;;
51184;SDS011;37248;59.350;18.050;2023-05-07T09:55:34;7.47;;;2.00;;
51184;SDS011;37248;59.350;18.050;2023-05-07T09:58:00;8.32;;;2.15;;
51184;SDS011;37248;59.350;18.050;2023-05-07T10:00:27;10.75;;;2.40;;
51184;SDS011;37248;59.350;18.050;2023-05-07T10:02:53;6.23;;;1.90;;
51184;SDS011;37248;59.350;18.050;2023-05-07T10:05:21;8.30;;;2.38;;
51184;SDS011;37248;59.350;18.050;2023-05-07T10:07:47;5.55;;;2.08;;
51184;SDS011;37248;59.350;18.050;2023-05-07T10:10:13;6.13;;;1.87;;
51184;SDS011;37248;59.350;18.050;2023-05-07T10:12:39;5.73;;;1.80;;
51184;SDS011;37248;59.350;18.050;2023-05-07T10:15:08;5.38;;;1.95;;
51184;SDS011;37248;59.350;18.050;2023-05-07T10:17:35;5.93;;;1.95;;
51184;SDS011;37248;59.350;18.050;2023-05-07T10:20:01;4.87;;;1.97;;
51184;SDS011;37248;59.350;18.050;2023-05-07T10:22:26;4.70;;;1.70;;
51184;SDS011;37248;59.350;18.050;2023-05-07T10:24:52;4.90;;;1.55;;
51184;SDS011;37248;59.350;18.050;2023-05-07T10:27:19;4.53;;;1.45;;
51184;SDS011;37248;59.350;18.050;2023-05-07T10:34:43;5.90;;;1.77;;
51184;SDS011;37248;59.350;18.050;2023-05-07T10:37:10;4.43;;;1.60;;
51184;SDS011;37248;59.350;18.050;2023-05-07T10:39:36;5.88;;;1.65;;
51184;SDS011;37248;59.350;18.050;2023-05-07T10:42:11;3.08;;;1.30;;
51184;SDS011;37248;59.350;18.050;2023-05-07T10:44:37;4.00;;;1.38;;
51184;SDS011;37248;59.350;18.050;2023-05-07T10:47:23;6.97;;;1.47;;
51184;SDS011;37248;59.350;18.050;2023-05-07T10:52:18;4.47;;;1.43;;
51184;SDS011;37248;59.350;18.050;2023-05-07T10:54:44;3.78;;;1.30;;
51184;SDS011;37248;59.350;18.050;2023-05-07T10:59:55;3.90;;;1.40;;
51184;SDS011;37248;59.350;18.050;2023-05-07T11:02:21;3.57;;;1.43;;
51184;SDS011;37248;59.350;18.050;2023-05-07T11:04:50;3.47;;;1.47;;
51184;SDS011;37248;59.350;18.050;2023-05-07T11:07:31;2.90;;;1.10;;
51184;SDS011;37248;59.350;18.050;2023-05-07T11:09:57;2.97;;;1.37;;
51184;SDS011;37248;59.350;18.050;2023-05-07T11:15:04;6.75;;;1.50;;
51184;SDS011;37248;59.350;18.050;2023-05-07T11:17:29;3.53;;;1.30;;
51184;SDS011;37248;59.350;18.050;2023-05-07T11:19:59;3.50;;;1.20;;
51184;SDS011;37248;59.350;18.050;2023-05-07T11:25:00;2.60;;;1.10;;
51184;SDS011;37248;59.350;18.050;2023-05-07T11:27:26;2.80;;;1.10;;
51184;SDS011;37248;59.350;18.050;2023-05-07T11:29:52;3.00;;;1.13;;
51184;SDS011;37248;59.350;18.050;2023-05-07T11:32:24;2.70;;;1.03;;
51184;SDS011;37248;59.350;18.050;2023-05-07T11:34:53;8.70;;;1.50;;
51184;SDS011;37248;59.350;18.050;2023-05-07T11:37:21;10.25;;;1.40;;
51184;SDS011;37248;59.350;18.050;2023-05-07T11:39:46;3.00;;;1.20;;
51184;SDS011;37248;59.350;18.050;2023-05-07T11:42:31;4.07;;;1.73;;
51184;SDS011;37248;59.350;18.050;2023-05-07T11:44:57;5.53;;;1.40;;
51184;SDS011;37248;59.350;18.050;2023-05-07T11:47:22;3.93;;;1.20;;
51184;SDS011;37248;59.350;18.050;2023-05-07T11:49:48;3.67;;;1.13;;
51184;SDS011;37248;59.350;18.050;2023-05-07T11:52:14;3.80;;;1.30;;
51184;SDS011;37248;59.350;18.050;2023-05-07T11:54:39;5.47;;;1.25;;
51184;SDS011;37248;59.350;18.050;2023-05-07T11:57:04;4.40;;;1.50;;
51184;SDS011;37248;59.350;18.050;2023-05-07T11:59:37;2.50;;;1.20;;
51184;SDS011;37248;59.350;18.050;2023-05-07T12:02:02;2.17;;;0.90;;
51184;SDS011;37248;59.350;18.050;2023-05-07T12:04:29;2.50;;;1.10;;
51184;SDS011;37248;59.350;18.050;2023-05-07T12:06:54;3.83;;;1.73;;
51184;SDS011;37248;59.350;18.050;2023-05-07T12:09:20;3.60;;;1.20;;
51184;SDS011;37248;59.350;18.050;2023-05-07T12:11:46;2.83;;;1.25;;
51184;SDS011;37248;59.350;18.050;2023-05-07T12:14:11;2.67;;;1.00;;
51184;SDS011;37248;59.350;18.050;2023-05-07T12:16:36;4.00;;;1.27;;
51184;SDS011;37248;59.350;18.050;2023-05-07T12:19:02;2.40;;;1.20;;
51184;SDS011;37248;59.350;18.050;2023-05-07T12:21:27;3.83;;;1.00;;
51184;SDS011;37248;59.350;18.050;2023-05-07T12:23:53;3.97;;;1.02;;
51184;SDS011;37248;59.350;18.050;2023-05-07T12:26:19;3.23;;;1.10;;
51184;SDS011;37248;59.350;18.050;2023-05-07T12:28:45;3.03;;;1.10;;
51184;SDS011;37248;59.350;18.050;2023-05-07T12:31:10;2.00;;;0.90;;
51184;SDS011;37248;59.350;18.050;2023-05-07T12:33:36;4.00;;;1.07;;
51184;SDS011;37248;59.350;18.050;2023-05-07T12:36:07;14.37;;;2.23;;
51184;SDS011;37248;59.350;18.050;2023-05-07T12:38:37;5.15;;;1.30;;
51184;SDS011;37248;59.350;18.050;2023-05-07T12:41:02;4.00;;;1.30;;
51184;SDS011;37248;59.350;18.050;2023-05-07T12:43:28;3.73;;;1.13;;
51184;SDS011;37248;59.350;18.050;2023-05-07T12:45:55;3.70;;;1.30;;
51184;SDS011;37248;59.350;18.050;2023-05-07T12:48:21;11.52;;;1.60;;
51184;SDS011;37248;59.350;18.050;2023-05-07T12:50:50;5.65;;;1.33;;
51184;SDS011;37248;59.350;18.050;2023-05-07T12:53:16;7.47;;;1.60;;
51184;SDS011;37248;59.350;18.050;2023-05-07T12:55:45;9.15;;;1.20;;
51184;SDS011;37248;59.350;18.050;2023-05-07T12:58:14;11.57;;;1.47;;
51184;SDS011;37248;59.350;18.050;2023-05-07T13:00:40;3.85;;;1.30;;
51184;SDS011;37248;59.350;18.050;2023-05-07T13:03:06;16.60;;;2.43;;
51184;SDS011;37248;59.350;18.050;2023-05-07T13:05:31;3.40;;;1.43;;
51184;SDS011;37248;59.350;18.050;2023-05-07T13:07:57;4.22;;;1.50;;
51184;SDS011;37248;59.350;18.050;2023-05-07T13:10:22;3.97;;;1.60;;
51184;SDS011;37248;59.350;18.050;2023-05-07T13:12:48;4.57;;;1.30;;
51184;SDS011;37248;59.350;18.050;2023-05-07T13:15:13;3.60;;;1.40;;
51184;SDS011;37248;59.350;18.050;2023-05-07T13:17:39;3.67;;;1.57;;
51184;SDS011;37248;59.350;18.050;2023-05-07T13:20:04;3.13;;;1.40;;
51184;SDS011;37248;59.350;18.050;2023-05-07T13:22:30;6.97;;;1.47;;
51184;SDS011;37248;59.350;18.050;2023-05-07T13:24:55;6.83;;;1.73;;
51184;SDS011;37248;59.350;18.050;2023-05-07T13:27:21;5.07;;;1.30;;
51184;SDS011;37248;59.350;18.050;2023-05-07T13:29:46;4.20;;;1.33;;
51184;SDS011;37248;59.350;18.050;2023-05-07T13:32:11;5.77;;;1.27;;
51184;SDS011;37248;59.350;18.050;2023-05-07T13:34:36;3.97;;;1.33;;
51184;SDS011;37248;59.350;18.050;2023-05-07T13:37:02;4.10;;;1.30;;
51184;SDS011;37248;59.350;18.050;2023-05-07T13:39:27;4.87;;;1.70;;
51184;SDS011;37248;59.350;18.050;2023-05-07T13:41:52;6.87;;;1.90;;
51184;SDS011;37248;59.350;18.050;2023-05-07T13:44:17;5.33;;;2.00;;
51184;SDS011;37248;59.350;18.050;2023-05-07T13:46:43;10.00;;;2.27;;
51184;SDS011;37248;59.350;18.050;2023-05-07T13:49:08;6.97;;;1.77;;
51184;SDS011;37248;59.350;18.050;2023-05-07T13:51:36;6.53;;;2.23;;
51184;SDS011;37248;59.350;18.050;2023-05-07T13:54:01;10.63;;;2.30;;
51184;SDS011;37248;59.350;18.050;2023-05-07T13:56:26;16.40;;;2.00;;
51184;SDS011;37248;59.350;18.050;2023-05-07T13:58:53;8.32;;;2.40;;
51184;SDS011;37248;59.350;18.050;2023-05-07T14:01:18;7.73;;;2.03;;
51184;SDS011;37248;59.350;18.050;2023-05-07T14:03:44;6.73;;;1.80;;
51184;SDS011;37248;59.350;18.050;2023-05-07T14:06:09;4.00;;;1.90;;
51184;SDS011;37248;59.350;18.050;2023-05-07T14:08:34;6.73;;;2.03;;
51184;SDS011;37248;59.350;18.050;2023-05-07T14:11:00;6.23;;;2.20;;
51184;SDS011;37248;59.350;18.050;2023-05-07T14:13:25;7.67;;;1.90;;
51184;SDS011;37248;59.350;18.050;2023-05-07T14:15:51;10.60;;;2.00;;
51184;SDS011;37248;59.350;18.050;2023-05-07T14:18:16;11.97;;;1.83;;
51184;SDS011;37248;59.350;18.050;2023-05-07T14:20:42;9.67;;;2.00;;
51184;SDS011;37248;59.350;18.050;2023-05-07T14:23:11;6.32;;;1.80;;
51184;SDS011;37248;59.350;18.050;2023-05-07T14:25:36;6.93;;;1.53;;
51184;SDS011;37248;59.350;18.050;2023-05-07T14:28:02;4.90;;;1.57;;
51184;SDS011;37248;59.350;18.050;2023-05-07T14:30:27;5.13;;;2.13;;
51184;SDS011;37248;59.350;18.050;2023-05-07T14:32:52;4.70;;;1.57;;
51184;SDS011;37248;59.350;18.050;2023-05-07T14:35:17;6.07;;;1.53;;
51184;SDS011;37248;59.350;18.050;2023-05-07T14:37:43;7.30;;;2.10;;
51184;SDS011;37248;59.350;18.050;2023-05-07T14:40:08;13.10;;;2.07;;
51184;SDS011;37248;59.350;18.050;2023-05-07T14:42:33;5.30;;;1.65;;